sensor_id;sensor_type;location;lat;lon;timestamp;P1;durP1;ratioP1;P2;durP2;ratioP2
18104;SDS011;9179;50.968;3.134;2023-02-01T00:00:30;11.77;;;5.07;;
18104;SDS011;9179;50.968;3.134;2023-02-01T00:03:00;14.82;;;5.50;;
18104;SDS011;9179;50.968;3.134;2023-02-01T00:05:27;10.68;;;5.53;;
18104;SDS011;9179;50.968;3.134;2023-02-01T00:07:54;13.00;;;5.50;;
18104;SDS011;9179;50.968;3.134;2023-02-01T00:10:21;12.43;;;6.85;;
18104;SDS011;9179;50.968;3.134;2023-02-01T00:12:48;12.68;;;5.53;;
18104;SDS011;9179;50.968;3.134;2023-02-01T00:20:27;12.68;;;5.53;;
18104;SDS011;9179;50.968;3.134;2023-02-01T00:22:54;12.15;;;5.38;;
18104;SDS011;9179;50.968;3.134;2023-02-01T00:25:21;14.48;;;6.03;;
18104;SDS011;9179;50.968;3.134;2023-02-01T00:27:48;12.07;;;5.03;;
18104;SDS011;9179;50.968;3.134;2023-02-01T00:30:16;13.75;;;5.50;;
18104;SDS011;9179;50.968;3.134;2023-02-01T00:32:43;15.70;;;5.40;;
18104;SDS011;9179;50.968;3.134;2023-02-01T00:35:10;14.15;;;6.38;;
18104;SDS011;9179;50.968;3.134;2023-02-01T00:37:38;10.10;;;5.90;;
18104;SDS011;9179;50.968;3.134;2023-02-01T00:40:06;13.55;;;6.72;;
18104;SDS011;9179;50.968;3.134;2023-02-01T00:42:34;11.60;;;6.07;;
18104;SDS011;9179;50.968;3.134;2023-02-01T00:45:01;9.27;;;5.28;;
18104;SDS011;9179;50.968;3.134;2023-02-01T00:47:28;13.65;;;6.28;;
18104;SDS011;9179;50.968;3.134;2023-02-01T00:49:55;10.38;;;5.75;;
18104;SDS011;9179;50.968;3.134;2023-02-01T00:52:22;10.38;;;5.55;;
18104;SDS011;9179;50.968;3.134;2023-02-01T00:54:50;12.20;;;6.50;;
18104;SDS011;9179;50.968;3.134;2023-02-01T00:57:17;11.20;;;5.43;;
18104;SDS011;9179;50.968;3.134;2023-02-01T00:59:44;13.38;;;6.75;;
18104;SDS011;9179;50.968;3.134;2023-02-01T01:02:11;13.77;;;5.47;;
18104;SDS011;9179;50.968;3.134;2023-02-01T01:04:39;11.25;;;5.38;;
18104;SDS011;9179;50.968;3.134;2023-02-01T01:07:06;17.23;;;6.40;;
18104;SDS011;9179;50.968;3.134;2023-02-01T01:09:33;8.93;;;4.65;;
18104;SDS011;9179;50.968;3.134;2023-02-01T01:12:02;12.10;;;5.43;;
18104;SDS011;9179;50.968;3.134;2023-02-01T01:14:29;11.95;;;5.20;;
18104;SDS011;9179;50.968;3.134;2023-02-01T01:16:56;12.15;;;5.63;;
18104;SDS011;9179;50.968;3.134;2023-02-01T01:19:23;14.77;;;6.13;;
18104;SDS011;9179;50.968;3.134;2023-02-01T01:21:49;12.10;;;5.68;;
18104;SDS011;9179;50.968;3.134;2023-02-01T01:24:16;7.47;;;5.80;;
18104;SDS011;9179;50.968;3.134;2023-02-01T01:26:43;12.02;;;5.25;;
18104;SDS011;9179;50.968;3.134;2023-02-01T01:29:12;12.93;;;4.88;;
18104;SDS011;9179;50.968;3.134;2023-02-01T01:31:39;11.70;;;5.05;;
18104;SDS011;9179;50.968;3.134;2023-02-01T01:34:06;10.55;;;5.85;;
18104;SDS011;9179;50.968;3.134;2023-02-01T01:36:33;10.30;;;5.38;;
18104;SDS011;9179;50.968;3.134;2023-02-01T01:38:59;11.15;;;5.15;;
18104;SDS011;9179;50.968;3.134;2023-02-01T01:41:29;14.70;;;6.60;;
18104;SDS011;9179;50.968;3.134;2023-02-01T01:43:57;11.10;;;5.55;;
18104;SDS011;9179;50.968;3.134;2023-02-01T01:46:27;8.10;;;5.50;;
18104;SDS011;9179;50.968;3.134;2023-02-01T01:48:58;10.52;;;5.28;;
18104;SDS011;9179;50.968;3.134;2023-02-01T01:51:29;15.10;;;6.40;;
18104;SDS011;9179;50.968;3.134;2023-02-01T01:54:00;13.75;;;5.40;;
18104;SDS011;9179;50.968;3.134;2023-02-01T01:56:30;6.53;;;4.70;;
18104;SDS011;9179;50.968;3.134;2023-02-01T01:59:00;10.23;;;5.60;;
18104;SDS011;9179;50.968;3.134;2023-02-01T02:01:29;14.73;;;5.20;;
18104;SDS011;9179;50.968;3.134;2023-02-01T02:03:55;12.48;;;4.90;;
18104;SDS011;9179;50.968;3.134;2023-02-01T02:06:27;10.73;;;4.97;;
18104;SDS011;9179;50.968;3.134;2023-02-01T02:09:03;14.02;;;6.15;;
18104;SDS011;9179;50.968;3.134;2023-02-01T02:11:30;13.38;;;6.05;;
18104;SDS011;9179;50.968;3.134;2023-02-01T02:13:57;10.68;;;5.60;;
18104;SDS011;9179;50.968;3.134;2023-02-01T02:16:33;15.90;;;5.63;;
18104;SDS011;9179;50.968;3.134;2023-02-01T02:22:46;18.02;;;5.18;;
18104;SDS011;9179;50.968;3.134;2023-02-01T02:28:30;12.95;;;5.35;;
18104;SDS011;9179;50.968;3.134;2023-02-01T02:31:30;12.98;;;5.43;;
18104;SDS011;9179;50.968;3.134;2023-02-01T02:34:15;13.32;;;5.50;;
18104;SDS011;9179;50.968;3.134;2023-02-01T02:36:51;11.35;;;5.30;;
18104;SDS011;9179;50.968;3.134;2023-02-01T02:39:33;13.27;;;5.30;;
18104;SDS011;9179;50.968;3.134;2023-02-01T02:42:08;11.60;;;4.97;;
18104;SDS011;9179;50.968;3.134;2023-02-01T02:44:58;15.02;;;4.85;;
18104;SDS011;9179;50.968;3.134;2023-02-01T02:47:50;14.63;;;4.75;;
18104;SDS011;9179;50.968;3.134;2023-02-01T02:50:23;15.52;;;5.28;;
18104;SDS011;9179;50.968;3.134;2023-02-01T02:53:12;12.75;;;4.97;;
18104;SDS011;9179;50.968;3.134;2023-02-01T02:56:00;9.80;;;4.88;;
18104;SDS011;9179;50.968;3.134;2023-02-01T02:58:48;12.45;;;5.05;;
18104;SDS011;9179;50.968;3.134;2023-02-01T03:01:33;8.70;;;4.85;;
18104;SDS011;9179;50.968;3.134;2023-02-01T03:09:30;10.60;;;5.32;;
18104;SDS011;9179;50.968;3.134;2023-02-01T03:12:01;9.93;;;5.90;;
18104;SDS011;9179;50.968;3.134;2023-02-01T03:14:50;13.57;;;4.28;;
18104;SDS011;9179;50.968;3.134;2023-02-01T03:17:24;16.65;;;5.78;;
18104;SDS011;9179;50.968;3.134;2023-02-01T03:19:56;12.60;;;5.72;;
18104;SDS011;9179;50.968;3.134;2023-02-01T03:22:27;13.40;;;4.95;;
18104;SDS011;9179;50.968;3.134;2023-02-01T03:25:01;8.93;;;5.45;;
18104;SDS011;9179;50.968;3.134;2023-02-01T03:27:32;14.82;;;5.00;;
18104;SDS011;9179;50.968;3.134;2023-02-01T03:30:06;11.82;;;4.22;;
18104;SDS011;9179;50.968;3.134;2023-02-01T03:32:38;13.90;;;5.05;;
18104;SDS011;9179;50.968;3.134;2023-02-01T03:35:37;15.95;;;6.07;;
18104;SDS011;9179;50.968;3.134;2023-02-01T03:38:12;11.07;;;4.70;;
18104;SDS011;9179;50.968;3.134;2023-02-01T03:40:46;13.48;;;4.93;;
18104;SDS011;9179;50.968;3.134;2023-02-01T03:43:17;12.48;;;5.25;;
18104;SDS011;9179;50.968;3.134;2023-02-01T03:45:48;17.33;;;5.22;;
18104;SDS011;9179;50.968;3.134;2023-02-01T03:48:20;10.98;;;5.22;;
18104;SDS011;9179;50.968;3.134;2023-02-01T03:50:52;11.40;;;4.97;;
18104;SDS011;9179;50.968;3.134;2023-02-01T03:53:22;10.55;;;5.00;;
18104;SDS011;9179;50.968;3.134;2023-02-01T03:55:52;15.48;;;5.00;;
18104;SDS011;9179;50.968;3.134;2023-02-01T03:58:20;11.38;;;5.13;;
18104;SDS011;9179;50.968;3.134;2023-02-01T04:00:50;10.57;;;5.00;;
18104;SDS011;9179;50.968;3.134;2023-02-01T04:03:19;16.40;;;5.15;;
18104;SDS011;9179;50.968;3.134;2023-02-01T04:05:47;11.82;;;4.70;;
18104;SDS011;9179;50.968;3.134;2023-02-01T04:08:16;20.15;;;5.38;;
18104;SDS011;9179;50.968;3.134;2023-02-01T04:10:44;7.50;;;4.72;;
18104;SDS011;9179;50.968;3.134;2023-02-01T04:13:12;11.90;;;4.38;;
18104;SDS011;9179;50.968;3.134;2023-02-01T04:15:39;10.77;;;5.32;;
18104;SDS011;9179;50.968;3.134;2023-02-01T04:18:06;13.05;;;4.93;;
18104;SDS011;9179;50.968;3.134;2023-02-01T04:20:33;11.38;;;5.75;;
18104;SDS011;9179;50.968;3.134;2023-02-01T04:23:00;12.95;;;5.13;;
18104;SDS011;9179;50.968;3.134;2023-02-01T04:25:29;10.98;;;4.95;;
18104;SDS011;9179;50.968;3.134;2023-02-01T04:27:56;12.10;;;4.82;;
18104;SDS011;9179;50.968;3.134;2023-02-01T04:30:24;11.65;;;5.75;;
18104;SDS011;9179;50.968;3.134;2023-02-01T04:32:51;14.98;;;5.65;;
18104;SDS011;9179;50.968;3.134;2023-02-01T04:35:18;15.88;;;5.72;;
18104;SDS011;9179;50.968;3.134;2023-02-01T04:37:45;13.38;;;5.13;;
18104;SDS011;9179;50.968;3.134;2023-02-01T04:40:12;12.63;;;5.95;;
18104;SDS011;9179;50.968;3.134;2023-02-01T04:42:40;15.60;;;4.80;;
18104;SDS011;9179;50.968;3.134;2023-02-01T04:45:08;11.82;;;5.25;;
18104;SDS011;9179;50.968;3.134;2023-02-01T04:47:35;16.27;;;5.85;;
18104;SDS011;9179;50.968;3.134;2023-02-01T04:50:02;11.68;;;5.97;;
18104;SDS011;9179;50.968;3.134;2023-02-01T04:52:30;13.60;;;4.85;;
18104;SDS011;9179;50.968;3.134;2023-02-01T04:54:57;11.75;;;4.43;;
18104;SDS011;9179;50.968;3.134;2023-02-01T04:57:25;12.93;;;5.00;;
18104;SDS011;9179;50.968;3.134;2023-02-01T04:59:53;11.88;;;5.70;;
18104;SDS011;9179;50.968;3.134;2023-02-01T05:02:20;11.98;;;4.35;;
18104;SDS011;9179;50.968;3.134;2023-02-01T05:04:47;11.68;;;6.05;;
18104;SDS011;9179;50.968;3.134;2023-02-01T05:07:15;15.68;;;6.32;;
18104;SDS011;9179;50.968;3.134;2023-02-01T05:09:43;11.30;;;4.80;;
18104;SDS011;9179;50.968;3.134;2023-02-01T05:12:10;10.88;;;5.13;;
18104;SDS011;9179;50.968;3.134;2023-02-01T05:14:55;10.85;;;5.53;;
18104;SDS011;9179;50.968;3.134;2023-02-01T05:17:22;15.13;;;5.20;;
18104;SDS011;9179;50.968;3.134;2023-02-01T05:19:49;20.40;;;5.68;;
18104;SDS011;9179;50.968;3.134;2023-02-01T05:22:16;11.27;;;4.63;;
18104;SDS011;9179;50.968;3.134;2023-02-01T05:24:44;9.50;;;5.63;;
18104;SDS011;9179;50.968;3.134;2023-02-01T05:27:11;13.23;;;5.57;;
18104;SDS011;9179;50.968;3.134;2023-02-01T05:29:38;8.77;;;5.57;;
18104;SDS011;9179;50.968;3.134;2023-02-01T05:32:06;8.95;;;5.00;;
18104;SDS011;9179;50.968;3.134;2023-02-01T05:34:35;13.90;;;5.68;;
18104;SDS011;9179;50.968;3.134;2023-02-01T05:37:02;16.83;;;5.90;;
18104;SDS011;9179;50.968;3.134;2023-02-01T05:39:29;11.23;;;4.93;;
18104;SDS011;9179;50.968;3.134;2023-02-01T05:41:56;12.50;;;4.68;;
18104;SDS011;9179;50.968;3.134;2023-02-01T05:44:23;13.65;;;5.63;;
18104;SDS011;9179;50.968;3.134;2023-02-01T05:46:50;16.02;;;5.35;;
18104;SDS011;9179;50.968;3.134;2023-02-01T05:49:19;11.13;;;6.90;;
18104;SDS011;9179;50.968;3.134;2023-02-01T05:51:46;13.57;;;5.50;;
18104;SDS011;9179;50.968;3.134;2023-02-01T05:54:13;14.02;;;5.13;;
18104;SDS011;9179;50.968;3.134;2023-02-01T05:56:40;20.60;;;6.38;;
18104;SDS011;9179;50.968;3.134;2023-02-01T05:59:07;12.77;;;4.95;;
18104;SDS011;9179;50.968;3.134;2023-02-01T06:01:35;9.40;;;5.03;;
18104;SDS011;9179;50.968;3.134;2023-02-01T06:04:02;15.10;;;5.55;;
18104;SDS011;9179;50.968;3.134;2023-02-01T06:06:30;14.00;;;5.00;;
18104;SDS011;9179;50.968;3.134;2023-02-01T06:08:57;11.40;;;4.78;;
18104;SDS011;9179;50.968;3.134;2023-02-01T06:11:25;12.50;;;4.93;;
18104;SDS011;9179;50.968;3.134;2023-02-01T06:13:53;19.02;;;6.18;;
18104;SDS011;9179;50.968;3.134;2023-02-01T06:16:20;8.27;;;5.15;;
18104;SDS011;9179;50.968;3.134;2023-02-01T06:18:47;13.13;;;5.13;;
18104;SDS011;9179;50.968;3.134;2023-02-01T06:21:15;15.85;;;5.75;;
18104;SDS011;9179;50.968;3.134;2023-02-01T06:23:50;12.65;;;5.68;;
18104;SDS011;9179;50.968;3.134;2023-02-01T06:26:16;13.88;;;5.93;;
18104;SDS011;9179;50.968;3.134;2023-02-01T06:28:44;14.57;;;5.47;;
18104;SDS011;9179;50.968;3.134;2023-02-01T06:31:11;8.52;;;4.63;;
18104;SDS011;9179;50.968;3.134;2023-02-01T06:33:38;8.98;;;5.90;;
18104;SDS011;9179;50.968;3.134;2023-02-01T06:36:06;11.30;;;4.93;;
18104;SDS011;9179;50.968;3.134;2023-02-01T06:38:36;17.02;;;5.28;;
18104;SDS011;9179;50.968;3.134;2023-02-01T06:41:05;9.60;;;4.55;;
18104;SDS011;9179;50.968;3.134;2023-02-01T06:43:32;15.98;;;6.25;;
18104;SDS011;9179;50.968;3.134;2023-02-01T06:45:59;20.90;;;7.47;;
18104;SDS011;9179;50.968;3.134;2023-02-01T06:48:27;10.40;;;4.93;;
18104;SDS011;9179;50.968;3.134;2023-02-01T06:50:54;10.50;;;5.00;;
18104;SDS011;9179;50.968;3.134;2023-02-01T06:53:21;11.73;;;4.30;;
18104;SDS011;9179;50.968;3.134;2023-02-01T06:55:52;13.00;;;5.47;;
18104;SDS011;9179;50.968;3.134;2023-02-01T06:58:21;19.13;;;5.40;;
18104;SDS011;9179;50.968;3.134;2023-02-01T07:00:48;11.80;;;5.78;;
18104;SDS011;9179;50.968;3.134;2023-02-01T07:03:15;9.70;;;5.47;;
18104;SDS011;9179;50.968;3.134;2023-02-01T07:05:42;13.90;;;4.97;;
18104;SDS011;9179;50.968;3.134;2023-02-01T07:08:09;8.30;;;5.75;;
18104;SDS011;9179;50.968;3.134;2023-02-01T07:10:36;13.55;;;5.93;;
18104;SDS011;9179;50.968;3.134;2023-02-01T07:13:04;13.38;;;5.85;;
18104;SDS011;9179;50.968;3.134;2023-02-01T07:15:33;14.15;;;4.80;;
18104;SDS011;9179;50.968;3.134;2023-02-01T07:18:00;14.38;;;6.53;;
18104;SDS011;9179;50.968;3.134;2023-02-01T07:20:27;6.13;;;4.80;;
18104;SDS011;9179;50.968;3.134;2023-02-01T07:22:54;10.88;;;4.97;;
18104;SDS011;9179;50.968;3.134;2023-02-01T07:25:22;10.63;;;4.97;;
18104;SDS011;9179;50.968;3.134;2023-02-01T07:27:49;11.82;;;3.95;;
18104;SDS011;9179;50.968;3.134;2023-02-01T07:30:16;15.05;;;5.53;;
18104;SDS011;9179;50.968;3.134;2023-02-01T07:32:45;22.60;;;5.43;;
18104;SDS011;9179;50.968;3.134;2023-02-01T07:35:12;11.30;;;4.90;;
18104;SDS011;9179;50.968;3.134;2023-02-01T07:37:39;12.90;;;4.97;;
18104;SDS011;9179;50.968;3.134;2023-02-01T07:40:07;16.45;;;4.75;;
18104;SDS011;9179;50.968;3.134;2023-02-01T07:42:35;12.73;;;4.97;;
18104;SDS011;9179;50.968;3.134;2023-02-01T07:45:02;18.73;;;6.10;;
18104;SDS011;9179;50.968;3.134;2023-02-01T07:47:29;7.82;;;4.13;;
18104;SDS011;9179;50.968;3.134;2023-02-01T07:49:57;16.77;;;5.10;;
18104;SDS011;9179;50.968;3.134;2023-02-01T07:52:27;7.78;;;4.05;;
18104;SDS011;9179;50.968;3.134;2023-02-01T07:54:54;15.07;;;5.28;;
18104;SDS011;9179;50.968;3.134;2023-02-01T07:57:21;8.82;;;4.75;;
18104;SDS011;9179;50.968;3.134;2023-02-01T07:59:48;11.13;;;5.10;;
18104;SDS011;9179;50.968;3.134;2023-02-01T08:02:44;12.85;;;5.35;;
18104;SDS011;9179;50.968;3.134;2023-02-01T08:05:12;10.77;;;4.40;;
18104;SDS011;9179;50.968;3.134;2023-02-01T08:07:39;7.47;;;4.43;;
18104;SDS011;9179;50.968;3.134;2023-02-01T08:10:06;9.48;;;4.45;;
18104;SDS011;9179;50.968;3.134;2023-02-01T08:12:35;15.32;;;5.28;;
18104;SDS011;9179;50.968;3.134;2023-02-01T08:15:02;15.13;;;5.47;;
18104;SDS011;9179;50.968;3.134;2023-02-01T08:17:30;8.57;;;4.88;;
18104;SDS011;9179;50.968;3.134;2023-02-01T08:19:57;9.82;;;4.65;;
18104;SDS011;9179;50.968;3.134;2023-02-01T08:22:25;12.35;;;5.50;;
18104;SDS011;9179;50.968;3.134;2023-02-01T08:24:52;14.60;;;4.90;;
18104;SDS011;9179;50.968;3.134;2023-02-01T08:27:26;7.13;;;4.18;;
18104;SDS011;9179;50.968;3.134;2023-02-01T08:29:53;13.32;;;4.70;;
18104;SDS011;9179;50.968;3.134;2023-02-01T08:32:20;10.32;;;4.85;;
18104;SDS011;9179;50.968;3.134;2023-02-01T08:34:47;12.18;;;4.82;;
18104;SDS011;9179;50.968;3.134;2023-02-01T08:37:14;11.48;;;5.28;;
18104;SDS011;9179;50.968;3.134;2023-02-01T08:39:42;7.78;;;4.15;;
18104;SDS011;9179;50.968;3.134;2023-02-01T08:42:10;12.50;;;4.72;;
18104;SDS011;9179;50.968;3.134;2023-02-01T08:44:55;8.27;;;4.68;;
18104;SDS011;9179;50.968;3.134;2023-02-01T08:47:22;12.10;;;5.43;;
18104;SDS011;9179;50.968;3.134;2023-02-01T08:49:50;15.00;;;5.00;;
18104;SDS011;9179;50.968;3.134;2023-02-01T08:52:18;10.63;;;4.10;;
18104;SDS011;9179;50.968;3.134;2023-02-01T08:54:46;6.10;;;3.80;;
18104;SDS011;9179;50.968;3.134;2023-02-01T08:57:13;14.63;;;5.22;;
18104;SDS011;9179;50.968;3.134;2023-02-01T08:59:41;11.30;;;5.00;;
18104;SDS011;9179;50.968;3.134;2023-02-01T09:02:09;11.55;;;5.07;;
18104;SDS011;9179;50.968;3.134;2023-02-01T09:04:39;13.07;;;5.57;;
18104;SDS011;9179;50.968;3.134;2023-02-01T09:07:06;12.55;;;4.55;;
18104;SDS011;9179;50.968;3.134;2023-02-01T09:09:33;7.30;;;5.32;;
18104;SDS011;9179;50.968;3.134;2023-02-01T09:12:01;7.82;;;4.50;;
18104;SDS011;9179;50.968;3.134;2023-02-01T09:14:29;13.25;;;7.18;;
18104;SDS011;9179;50.968;3.134;2023-02-01T09:16:56;10.85;;;7.13;;
18104;SDS011;9179;50.968;3.134;2023-02-01T09:19:23;15.68;;;6.20;;
18104;SDS011;9179;50.968;3.134;2023-02-01T09:21:50;9.88;;;4.90;;
18104;SDS011;9179;50.968;3.134;2023-02-01T09:24:17;14.52;;;5.25;;
18104;SDS011;9179;50.968;3.134;2023-02-01T09:26:44;15.55;;;4.85;;
18104;SDS011;9179;50.968;3.134;2023-02-01T09:29:12;13.98;;;4.97;;
18104;SDS011;9179;50.968;3.134;2023-02-01T09:31:39;10.75;;;5.15;;
18104;SDS011;9179;50.968;3.134;2023-02-01T09:34:07;9.13;;;4.53;;
18104;SDS011;9179;50.968;3.134;2023-02-01T09:36:34;9.05;;;4.43;;
18104;SDS011;9179;50.968;3.134;2023-02-01T09:39:01;11.35;;;4.43;;
18104;SDS011;9179;50.968;3.134;2023-02-01T09:41:40;8.13;;;4.20;;
18104;SDS011;9179;50.968;3.134;2023-02-01T09:47:09;8.57;;;3.63;;
18104;SDS011;9179;50.968;3.134;2023-02-01T09:49:39;6.78;;;3.45;;
18104;SDS011;9179;50.968;3.134;2023-02-01T09:52:16;6.57;;;3.53;;
18104;SDS011;9179;50.968;3.134;2023-02-01T09:54:49;11.52;;;3.95;;
18104;SDS011;9179;50.968;3.134;2023-02-01T09:57:23;10.88;;;3.72;;
18104;SDS011;9179;50.968;3.134;2023-02-01T09:59:55;6.00;;;3.97;;
18104;SDS011;9179;50.968;3.134;2023-02-01T10:02:27;12.23;;;4.05;;
18104;SDS011;9179;50.968;3.134;2023-02-01T10:04:57;10.23;;;3.78;;
18104;SDS011;9179;50.968;3.134;2023-02-01T10:07:27;11.02;;;3.90;;
18104;SDS011;9179;50.968;3.134;2023-02-01T10:10:05;9.45;;;4.90;;
18104;SDS011;9179;50.968;3.134;2023-02-01T10:12:47;8.93;;;3.60;;
18104;SDS011;9179;50.968;3.134;2023-02-01T10:15:32;10.85;;;4.32;;
18104;SDS011;9179;50.968;3.134;2023-02-01T10:18:20;10.25;;;3.97;;
18104;SDS011;9179;50.968;3.134;2023-02-01T10:20:59;9.88;;;3.35;;
18104;SDS011;9179;50.968;3.134;2023-02-01T10:23:46;10.90;;;3.45;;
18104;SDS011;9179;50.968;3.134;2023-02-01T10:26:29;11.40;;;4.07;;
18104;SDS011;9179;50.968;3.134;2023-02-01T10:29:00;5.80;;;2.85;;
18104;SDS011;9179;50.968;3.134;2023-02-01T10:31:32;9.57;;;4.25;;
18104;SDS011;9179;50.968;3.134;2023-02-01T10:34:06;7.20;;;3.70;;
18104;SDS011;9179;50.968;3.134;2023-02-01T10:36:40;8.02;;;3.42;;
18104;SDS011;9179;50.968;3.134;2023-02-01T10:39:12;7.93;;;3.60;;
18104;SDS011;9179;50.968;3.134;2023-02-01T10:41:41;8.50;;;4.03;;
18104;SDS011;9179;50.968;3.134;2023-02-01T10:44:10;7.07;;;3.50;;
18104;SDS011;9179;50.968;3.134;2023-02-01T10:46:41;8.25;;;3.35;;
18104;SDS011;9179;50.968;3.134;2023-02-01T10:49:11;11.02;;;4.22;;
18104;SDS011;9179;50.968;3.134;2023-02-01T10:51:42;8.77;;;3.78;;
18104;SDS011;9179;50.968;3.134;2023-02-01T10:54:14;9.82;;;3.25;;
18104;SDS011;9179;50.968;3.134;2023-02-01T10:56:45;8.65;;;3.40;;
18104;SDS011;9179;50.968;3.134;2023-02-01T10:59:15;9.48;;;3.58;;
18104;SDS011;9179;50.968;3.134;2023-02-01T11:01:46;7.65;;;3.15;;
18104;SDS011;9179;50.968;3.134;2023-02-01T11:04:14;5.43;;;3.30;;
18104;SDS011;9179;50.968;3.134;2023-02-01T11:06:45;7.63;;;3.15;;
18104;SDS011;9179;50.968;3.134;2023-02-01T11:09:16;7.72;;;3.53;;
18104;SDS011;9179;50.968;3.134;2023-02-01T11:11:54;8.32;;;3.15;;
18104;SDS011;9179;50.968;3.134;2023-02-01T11:14:27;7.15;;;3.10;;
18104;SDS011;9179;50.968;3.134;2023-02-01T11:17:02;10.20;;;3.70;;
18104;SDS011;9179;50.968;3.134;2023-02-01T11:19:56;10.77;;;3.25;;
18104;SDS011;9179;50.968;3.134;2023-02-01T11:22:25;7.18;;;3.30;;
18104;SDS011;9179;50.968;3.134;2023-02-01T11:24:54;8.00;;;3.25;;
18104;SDS011;9179;50.968;3.134;2023-02-01T11:27:22;6.63;;;3.10;;
18104;SDS011;9179;50.968;3.134;2023-02-01T11:29:51;5.57;;;2.80;;
18104;SDS011;9179;50.968;3.134;2023-02-01T11:32:23;7.53;;;3.10;;
18104;SDS011;9179;50.968;3.134;2023-02-01T11:34:52;6.32;;;2.78;;
18104;SDS011;9179;50.968;3.134;2023-02-01T11:37:23;7.03;;;2.67;;
18104;SDS011;9179;50.968;3.134;2023-02-01T11:39:55;5.75;;;2.53;;
18104;SDS011;9179;50.968;3.134;2023-02-01T11:42:23;5.45;;;2.80;;
18104;SDS011;9179;50.968;3.134;2023-02-01T11:44:51;6.75;;;2.90;;
18104;SDS011;9179;50.968;3.134;2023-02-01T11:47:46;5.25;;;2.95;;
18104;SDS011;9179;50.968;3.134;2023-02-01T11:50:18;11.52;;;3.03;;
18104;SDS011;9179;50.968;3.134;2023-02-01T11:52:58;9.45;;;3.30;;
18104;SDS011;9179;50.968;3.134;2023-02-01T11:55:55;7.30;;;2.88;;
18104;SDS011;9179;50.968;3.134;2023-02-01T11:58:36;7.43;;;3.03;;
18104;SDS011;9179;50.968;3.134;2023-02-01T12:01:18;6.28;;;2.70;;
18104;SDS011;9179;50.968;3.134;2023-02-01T12:04:13;6.38;;;2.63;;
18104;SDS011;9179;50.968;3.134;2023-02-01T12:06:59;5.82;;;3.00;;
18104;SDS011;9179;50.968;3.134;2023-02-01T12:09:41;6.72;;;2.88;;
18104;SDS011;9179;50.968;3.134;2023-02-01T12:12:18;8.82;;;2.63;;
18104;SDS011;9179;50.968;3.134;2023-02-01T12:14:57;4.70;;;2.33;;
18104;SDS011;9179;50.968;3.134;2023-02-01T12:17:41;9.25;;;2.80;;
18104;SDS011;9179;50.968;3.134;2023-02-01T12:20:22;8.30;;;3.65;;
18104;SDS011;9179;50.968;3.134;2023-02-01T12:23:01;6.40;;;3.20;;
18104;SDS011;9179;50.968;3.134;2023-02-01T12:25:52;7.72;;;3.28;;
18104;SDS011;9179;50.968;3.134;2023-02-01T12:31:47;7.25;;;3.88;;
18104;SDS011;9179;50.968;3.134;2023-02-01T12:34:48;3.85;;;2.80;;
18104;SDS011;9179;50.968;3.134;2023-02-01T12:37:34;4.22;;;2.33;;
18104;SDS011;9179;50.968;3.134;2023-02-01T12:40:19;3.45;;;2.85;;
18104;SDS011;9179;50.968;3.134;2023-02-01T12:42:57;8.98;;;3.10;;
18104;SDS011;9179;50.968;3.134;2023-02-01T12:45:28;7.60;;;2.97;;
18104;SDS011;9179;50.968;3.134;2023-02-01T12:48:00;4.60;;;2.88;;
18104;SDS011;9179;50.968;3.134;2023-02-01T12:50:39;5.97;;;2.58;;
18104;SDS011;9179;50.968;3.134;2023-02-01T12:53:15;6.85;;;3.03;;
18104;SDS011;9179;50.968;3.134;2023-02-01T12:55:47;4.68;;;2.17;;
18104;SDS011;9179;50.968;3.134;2023-02-01T12:58:18;5.63;;;2.65;;
18104;SDS011;9179;50.968;3.134;2023-02-01T13:01:01;6.43;;;2.78;;
18104;SDS011;9179;50.968;3.134;2023-02-01T13:03:35;5.25;;;3.00;;
18104;SDS011;9179;50.968;3.134;2023-02-01T13:06:06;8.88;;;2.88;;
18104;SDS011;9179;50.968;3.134;2023-02-01T13:08:41;8.57;;;3.05;;
18104;SDS011;9179;50.968;3.134;2023-02-01T13:11:13;6.63;;;2.58;;
18104;SDS011;9179;50.968;3.134;2023-02-01T13:13:46;7.78;;;3.15;;
18104;SDS011;9179;50.968;3.134;2023-02-01T13:16:27;7.95;;;3.42;;
18104;SDS011;9179;50.968;3.134;2023-02-01T13:18:59;9.15;;;3.22;;
18104;SDS011;9179;50.968;3.134;2023-02-01T13:21:32;7.90;;;3.28;;
18104;SDS011;9179;50.968;3.134;2023-02-01T13:24:06;6.05;;;3.05;;
18104;SDS011;9179;50.968;3.134;2023-02-01T13:26:52;6.20;;;3.72;;
18104;SDS011;9179;50.968;3.134;2023-02-01T13:29:20;8.70;;;3.40;;
18104;SDS011;9179;50.968;3.134;2023-02-01T13:31:56;5.85;;;3.75;;
18104;SDS011;9179;50.968;3.134;2023-02-01T13:34:41;9.02;;;3.85;;
18104;SDS011;9179;50.968;3.134;2023-02-01T13:37:34;8.13;;;3.28;;
18104;SDS011;9179;50.968;3.134;2023-02-01T13:40:23;6.97;;;3.50;;
18104;SDS011;9179;50.968;3.134;2023-02-01T13:43:02;8.60;;;2.92;;
18104;SDS011;9179;50.968;3.134;2023-02-01T13:45:43;7.07;;;3.10;;
18104;SDS011;9179;50.968;3.134;2023-02-01T13:48:17;7.50;;;3.15;;
18104;SDS011;9179;50.968;3.134;2023-02-01T13:50:50;9.07;;;3.80;;
18104;SDS011;9179;50.968;3.134;2023-02-01T13:53:21;8.27;;;3.63;;
18104;SDS011;9179;50.968;3.134;2023-02-01T13:55:56;5.45;;;3.28;;
18104;SDS011;9179;50.968;3.134;2023-02-01T13:58:30;5.40;;;2.70;;
18104;SDS011;9179;50.968;3.134;2023-02-01T14:07:15;9.40;;;3.78;;
18104;SDS011;9179;50.968;3.134;2023-02-01T14:09:45;6.18;;;3.28;;
18104;SDS011;9179;50.968;3.134;2023-02-01T14:15:18;9.13;;;3.58;;
18104;SDS011;9179;50.968;3.134;2023-02-01T14:17:50;9.93;;;3.33;;
18104;SDS011;9179;50.968;3.134;2023-02-01T14:23:22;8.32;;;3.35;;
18104;SDS011;9179;50.968;3.134;2023-02-01T14:28:57;9.07;;;3.50;;
18104;SDS011;9179;50.968;3.134;2023-02-01T14:31:39;8.77;;;3.70;;
18104;SDS011;9179;50.968;3.134;2023-02-01T14:34:26;9.82;;;3.58;;
18104;SDS011;9179;50.968;3.134;2023-02-01T14:37:23;8.65;;;3.78;;
18104;SDS011;9179;50.968;3.134;2023-02-01T14:39:55;6.97;;;3.03;;
18104;SDS011;9179;50.968;3.134;2023-02-01T14:42:26;7.93;;;3.92;;
18104;SDS011;9179;50.968;3.134;2023-02-01T14:45:45;7.57;;;3.47;;
18104;SDS011;9179;50.968;3.134;2023-02-01T14:51:06;7.70;;;3.83;;
18104;SDS011;9179;50.968;3.134;2023-02-01T14:53:34;6.95;;;3.88;;
18104;SDS011;9179;50.968;3.134;2023-02-01T14:56:05;7.72;;;3.92;;
18104;SDS011;9179;50.968;3.134;2023-02-01T14:58:39;10.15;;;3.95;;
18104;SDS011;9179;50.968;3.134;2023-02-01T15:01:17;6.60;;;4.00;;
18104;SDS011;9179;50.968;3.134;2023-02-01T15:03:48;11.05;;;4.88;;
18104;SDS011;9179;50.968;3.134;2023-02-01T15:06:22;14.95;;;5.78;;
18104;SDS011;9179;50.968;3.134;2023-02-01T15:08:54;6.97;;;3.72;;
18104;SDS011;9179;50.968;3.134;2023-02-01T15:11:23;11.15;;;4.60;;
18104;SDS011;9179;50.968;3.134;2023-02-01T15:13:51;7.93;;;4.40;;
18104;SDS011;9179;50.968;3.134;2023-02-01T15:16:27;9.52;;;4.18;;
18104;SDS011;9179;50.968;3.134;2023-02-01T15:19:07;8.20;;;3.95;;
18104;SDS011;9179;50.968;3.134;2023-02-01T15:21:42;8.90;;;4.38;;
18104;SDS011;9179;50.968;3.134;2023-02-01T15:24:11;8.73;;;5.15;;
18104;SDS011;9179;50.968;3.134;2023-02-01T15:26:39;11.85;;;4.85;;
18104;SDS011;9179;50.968;3.134;2023-02-01T15:29:09;14.32;;;4.47;;
18104;SDS011;9179;50.968;3.134;2023-02-01T15:31:40;11.85;;;4.32;;
18104;SDS011;9179;50.968;3.134;2023-02-01T15:34:09;10.30;;;4.47;;
18104;SDS011;9179;50.968;3.134;2023-02-01T15:36:37;17.27;;;5.28;;
18104;SDS011;9179;50.968;3.134;2023-02-01T15:39:12;8.75;;;4.70;;
18104;SDS011;9179;50.968;3.134;2023-02-01T15:41:48;10.13;;;4.45;;
18104;SDS011;9179;50.968;3.134;2023-02-01T15:44:18;11.55;;;5.13;;
18104;SDS011;9179;50.968;3.134;2023-02-01T15:46:52;12.85;;;5.07;;
18104;SDS011;9179;50.968;3.134;2023-02-01T15:49:20;14.45;;;5.35;;
18104;SDS011;9179;50.968;3.134;2023-02-01T15:51:51;11.25;;;4.68;;
18104;SDS011;9179;50.968;3.134;2023-02-01T15:54:20;11.63;;;4.97;;
18104;SDS011;9179;50.968;3.134;2023-02-01T15:56:52;10.02;;;5.57;;
18104;SDS011;9179;50.968;3.134;2023-02-01T15:59:22;10.15;;;4.90;;
18104;SDS011;9179;50.968;3.134;2023-02-01T16:01:58;12.55;;;5.40;;